Terminal Aerodrome Forecast
Issued by NWS

Home | Current Version | Previous Version | Text Only | Print | Product List | Glossary On
Versions: 1 2 3 4 5 6 7 8 9 10 11 12 13 14
433
FTUS46 KMFR 270109 AAA
TAFLMT
TAF AMD
KLMT 270109Z 2701/2724 33012G21KT P6SM VCTS SCT060CB BKN100
     FM270300 24005KT P6SM SKC
     FM272000 30008G19KT P6SM FEW100=

USA.gov is the U.S. government's official web portal to all federal, state and local government web resources and services.